sensor_id;sensor_type;location;lat;lon;timestamp;pressure;altitude;pressure_sealevel;temperature;humidity
35307;BME280;21420;52.196;21.416;2023-04-26T00:00:33;99381.77;;;7.84;62.66
35307;BME280;21420;52.196;21.416;2023-04-26T00:03:00;99384.32;;;7.79;62.57
35307;BME280;21420;52.196;21.416;2023-04-26T00:05:27;99387.63;;;7.73;62.63
35307;BME280;21420;52.196;21.416;2023-04-26T00:07:55;99389.37;;;7.69;62.72
35307;BME280;21420;52.196;21.416;2023-04-26T00:10:22;99386.10;;;7.66;62.81
35307;BME280;21420;52.196;21.416;2023-04-26T00:12:48;99388.92;;;7.64;62.95
35307;BME280;21420;52.196;21.416;2023-04-26T00:15:15;99389.69;;;7.62;62.97
35307;BME280;21420;52.196;21.416;2023-04-26T00:17:41;99391.64;;;7.60;62.89
35307;BME280;21420;52.196;21.416;2023-04-26T00:20:09;99388.88;;;7.56;62.83
35307;BME280;21420;52.196;21.416;2023-04-26T00:22:38;99387.21;;;7.52;62.98
35307;BME280;21420;52.196;21.416;2023-04-26T00:25:05;99390.55;;;7.49;62.97
35307;BME280;21420;52.196;21.416;2023-04-26T00:27:32;99395.53;;;7.47;63.02
35307;BME280;21420;52.196;21.416;2023-04-26T00:29:59;99397.83;;;7.46;63.03
35307;BME280;21420;52.196;21.416;2023-04-26T00:32:25;99395.30;;;7.45;63.09
35307;BME280;21420;52.196;21.416;2023-04-26T00:34:52;99399.29;;;7.45;63.14
35307;BME280;21420;52.196;21.416;2023-04-26T00:37:19;99398.83;;;7.46;63.23
35307;BME280;21420;52.196;21.416;2023-04-26T00:39:46;99400.48;;;7.46;63.19
35307;BME280;21420;52.196;21.416;2023-04-26T00:42:13;99402.63;;;7.45;63.24
35307;BME280;21420;52.196;21.416;2023-04-26T00:44:40;99403.23;;;7.42;63.25
35307;BME280;21420;52.196;21.416;2023-04-26T00:47:07;99404.52;;;7.41;63.34
35307;BME280;21420;52.196;21.416;2023-04-26T00:49:33;99409.08;;;7.40;63.29
35307;BME280;21420;52.196;21.416;2023-04-26T00:52:00;99413.91;;;7.41;63.26
35307;BME280;21420;52.196;21.416;2023-04-26T00:54:27;99418.41;;;7.42;63.45
35307;BME280;21420;52.196;21.416;2023-04-26T00:56:54;99420.60;;;7.45;63.48
35307;BME280;21420;52.196;21.416;2023-04-26T00:59:21;99420.47;;;7.45;63.42
35307;BME280;21420;52.196;21.416;2023-04-26T01:01:48;99418.70;;;7.44;63.52
35307;BME280;21420;52.196;21.416;2023-04-26T01:04:15;99421.55;;;7.43;63.56
35307;BME280;21420;52.196;21.416;2023-04-26T01:06:43;99425.66;;;7.41;63.58
35307;BME280;21420;52.196;21.416;2023-04-26T01:09:09;99432.64;;;7.36;63.50
35307;BME280;21420;52.196;21.416;2023-04-26T01:11:41;99439.65;;;7.31;63.59
35307;BME280;21420;52.196;21.416;2023-04-26T01:14:09;99442.92;;;7.26;63.73
35307;BME280;21420;52.196;21.416;2023-04-26T01:16:37;99449.17;;;7.20;63.61
35307;BME280;21420;52.196;21.416;2023-04-26T01:19:11;99457.88;;;7.14;63.53
35307;BME280;21420;52.196;21.416;2023-04-26T01:21:39;99458.42;;;7.05;63.59
35307;BME280;21420;52.196;21.416;2023-04-26T01:24:08;99466.05;;;6.94;63.44
35307;BME280;21420;52.196;21.416;2023-04-26T01:26:37;99470.79;;;6.85;63.38
35307;BME280;21420;52.196;21.416;2023-04-26T01:29:15;99473.45;;;6.73;63.29
35307;BME280;21420;52.196;21.416;2023-04-26T01:31:42;99477.55;;;6.60;63.48
35307;BME280;21420;52.196;21.416;2023-04-26T01:34:09;99485.92;;;6.51;63.56
35307;BME280;21420;52.196;21.416;2023-04-26T01:36:36;99485.27;;;6.43;63.42
35307;BME280;21420;52.196;21.416;2023-04-26T01:39:03;99484.46;;;6.38;63.57
35307;BME280;21420;52.196;21.416;2023-04-26T01:41:30;99488.70;;;6.35;63.66
35307;BME280;21420;52.196;21.416;2023-04-26T01:43:59;99488.55;;;6.35;63.68
35307;BME280;21420;52.196;21.416;2023-04-26T01:46:26;99482.58;;;6.33;63.74
35307;BME280;21420;52.196;21.416;2023-04-26T01:48:53;99475.75;;;6.32;63.72
35307;BME280;21420;52.196;21.416;2023-04-26T01:51:21;99476.64;;;6.30;63.74
35307;BME280;21420;52.196;21.416;2023-04-26T01:53:48;99481.52;;;6.30;63.74
35307;BME280;21420;52.196;21.416;2023-04-26T01:56:15;99480.13;;;6.30;63.99
35307;BME280;21420;52.196;21.416;2023-04-26T01:58:42;99482.79;;;6.30;63.96
35307;BME280;21420;52.196;21.416;2023-04-26T02:01:09;99484.72;;;6.28;63.94
35307;BME280;21420;52.196;21.416;2023-04-26T02:03:35;99486.30;;;6.29;63.97
35307;BME280;21420;52.196;21.416;2023-04-26T02:06:02;99487.10;;;6.30;63.89
35307;BME280;21420;52.196;21.416;2023-04-26T02:08:29;99486.20;;;6.26;63.86
35307;BME280;21420;52.196;21.416;2023-04-26T02:10:56;99491.17;;;6.23;63.83
35307;BME280;21420;52.196;21.416;2023-04-26T02:13:23;99493.20;;;6.19;63.89
35307;BME280;21420;52.196;21.416;2023-04-26T02:19:05;99496.20;;;6.08;63.98
35307;BME280;21420;52.196;21.416;2023-04-26T02:21:53;99500.67;;;6.00;63.87
35307;BME280;21420;52.196;21.416;2023-04-26T02:24:21;99499.86;;;5.94;63.83
35307;BME280;21420;52.196;21.416;2023-04-26T02:26:49;99501.33;;;5.88;63.86
35307;BME280;21420;52.196;21.416;2023-04-26T02:29:16;99505.61;;;5.82;63.86
35307;BME280;21420;52.196;21.416;2023-04-26T02:31:42;99504.47;;;5.78;63.91
35307;BME280;21420;52.196;21.416;2023-04-26T02:34:11;99503.35;;;5.73;63.87
35307;BME280;21420;52.196;21.416;2023-04-26T02:36:37;99506.64;;;5.66;63.82
35307;BME280;21420;52.196;21.416;2023-04-26T02:39:04;99512.45;;;5.59;63.91
35307;BME280;21420;52.196;21.416;2023-04-26T02:41:31;99510.94;;;5.52;64.00
35307;BME280;21420;52.196;21.416;2023-04-26T02:43:58;99514.02;;;5.43;63.88
35307;BME280;21420;52.196;21.416;2023-04-26T02:46:25;99511.41;;;5.33;63.92
35307;BME280;21420;52.196;21.416;2023-04-26T02:48:52;99513.15;;;5.25;63.88
35307;BME280;21420;52.196;21.416;2023-04-26T02:51:19;99511.46;;;5.18;63.88
35307;BME280;21420;52.196;21.416;2023-04-26T02:53:46;99513.61;;;5.10;63.97
35307;BME280;21420;52.196;21.416;2023-04-26T02:56:12;99510.51;;;5.03;63.87
35307;BME280;21420;52.196;21.416;2023-04-26T02:58:39;99506.59;;;4.97;64.04
35307;BME280;21420;52.196;21.416;2023-04-26T03:01:06;99507.73;;;4.91;64.16
35307;BME280;21420;52.196;21.416;2023-04-26T03:03:32;99506.94;;;4.87;64.21
35307;BME280;21420;52.196;21.416;2023-04-26T03:06:00;99511.11;;;4.84;64.18
35307;BME280;21420;52.196;21.416;2023-04-26T03:08:27;99506.27;;;4.79;64.19
35307;BME280;21420;52.196;21.416;2023-04-26T03:10:54;99509.94;;;4.74;64.18
35307;BME280;21420;52.196;21.416;2023-04-26T03:13:23;99510.92;;;4.72;64.15
35307;BME280;21420;52.196;21.416;2023-04-26T03:15:51;99510.73;;;4.73;64.30
35307;BME280;21420;52.196;21.416;2023-04-26T03:18:20;99513.28;;;4.75;64.32
35307;BME280;21420;52.196;21.416;2023-04-26T03:20:46;99513.56;;;4.76;64.37
35307;BME280;21420;52.196;21.416;2023-04-26T03:23:13;99512.83;;;4.79;64.38
35307;BME280;21420;52.196;21.416;2023-04-26T03:25:40;99511.24;;;4.83;64.48
35307;BME280;21420;52.196;21.416;2023-04-26T03:28:07;99515.88;;;4.88;64.52
35307;BME280;21420;52.196;21.416;2023-04-26T03:30:34;99516.98;;;4.94;64.50
35307;BME280;21420;52.196;21.416;2023-04-26T03:33:01;99518.85;;;4.98;64.47
35307;BME280;21420;52.196;21.416;2023-04-26T03:35:28;99524.11;;;5.04;64.56
35307;BME280;21420;52.196;21.416;2023-04-26T03:37:54;99524.95;;;5.10;64.68
35307;BME280;21420;52.196;21.416;2023-04-26T03:40:25;99527.02;;;5.15;64.79
35307;BME280;21420;52.196;21.416;2023-04-26T03:42:52;99524.80;;;5.19;64.71
35307;BME280;21420;52.196;21.416;2023-04-26T03:45:20;99527.98;;;5.24;64.63
35307;BME280;21420;52.196;21.416;2023-04-26T03:47:46;99532.15;;;5.30;64.61
35307;BME280;21420;52.196;21.416;2023-04-26T03:50:13;99533.02;;;5.33;64.71
35307;BME280;21420;52.196;21.416;2023-04-26T03:52:40;99533.86;;;5.37;64.71
35307;BME280;21420;52.196;21.416;2023-04-26T03:55:07;99531.59;;;5.40;64.77
35307;BME280;21420;52.196;21.416;2023-04-26T03:57:35;99531.62;;;5.42;64.69
35307;BME280;21420;52.196;21.416;2023-04-26T04:00:03;99534.17;;;5.46;64.83
35307;BME280;21420;52.196;21.416;2023-04-26T04:02:42;99535.23;;;5.50;64.90
35307;BME280;21420;52.196;21.416;2023-04-26T04:05:12;99535.25;;;5.54;64.89
35307;BME280;21420;52.196;21.416;2023-04-26T04:07:39;99535.73;;;5.58;64.95
35307;BME280;21420;52.196;21.416;2023-04-26T04:10:05;99533.89;;;5.61;65.01
35307;BME280;21420;52.196;21.416;2023-04-26T04:12:34;99526.95;;;5.62;64.92
35307;BME280;21420;52.196;21.416;2023-04-26T04:15:00;99524.41;;;5.65;64.93
35307;BME280;21420;52.196;21.416;2023-04-26T04:17:28;99523.29;;;5.69;65.05
35307;BME280;21420;52.196;21.416;2023-04-26T04:19:55;99527.13;;;5.73;65.08
35307;BME280;21420;52.196;21.416;2023-04-26T04:22:22;99529.41;;;5.78;65.05
35307;BME280;21420;52.196;21.416;2023-04-26T04:24:48;99531.32;;;5.81;65.10
35307;BME280;21420;52.196;21.416;2023-04-26T04:27:15;99533.70;;;5.82;65.10
35307;BME280;21420;52.196;21.416;2023-04-26T04:29:43;99535.08;;;5.86;65.16
35307;BME280;21420;52.196;21.416;2023-04-26T04:32:10;99533.32;;;5.91;65.15
35307;BME280;21420;52.196;21.416;2023-04-26T04:34:40;99535.59;;;5.98;65.22
35307;BME280;21420;52.196;21.416;2023-04-26T04:37:07;99538.27;;;6.04;65.26
35307;BME280;21420;52.196;21.416;2023-04-26T04:39:35;99537.79;;;6.10;65.29
35307;BME280;21420;52.196;21.416;2023-04-26T04:42:02;99542.58;;;6.14;65.22
35307;BME280;21420;52.196;21.416;2023-04-26T04:44:29;99542.37;;;6.19;65.19
35307;BME280;21420;52.196;21.416;2023-04-26T04:46:56;99545.59;;;6.20;65.29
35307;BME280;21420;52.196;21.416;2023-04-26T04:49:23;99546.20;;;6.19;65.07
35307;BME280;21420;52.196;21.416;2023-04-26T04:51:51;99550.07;;;6.21;65.14
35307;BME280;21420;52.196;21.416;2023-04-26T04:54:18;99553.33;;;6.27;65.30
35307;BME280;21420;52.196;21.416;2023-04-26T04:56:46;99553.77;;;6.36;65.23
35307;BME280;21420;52.196;21.416;2023-04-26T04:59:14;99551.52;;;6.46;65.21
35307;BME280;21420;52.196;21.416;2023-04-26T05:01:41;99551.05;;;6.54;65.18
35307;BME280;21420;52.196;21.416;2023-04-26T05:04:11;99554.52;;;6.59;65.06
35307;BME280;21420;52.196;21.416;2023-04-26T05:06:38;99553.05;;;6.61;65.09
35307;BME280;21420;52.196;21.416;2023-04-26T05:09:04;99555.86;;;6.63;64.97
35307;BME280;21420;52.196;21.416;2023-04-26T05:11:31;99555.27;;;6.66;65.01
35307;BME280;21420;52.196;21.416;2023-04-26T05:13:59;99552.61;;;6.76;65.18
35307;BME280;21420;52.196;21.416;2023-04-26T05:16:26;99555.02;;;6.90;65.19
35307;BME280;21420;52.196;21.416;2023-04-26T05:18:53;99560.82;;;7.04;65.16
35307;BME280;21420;52.196;21.416;2023-04-26T05:21:20;99566.14;;;7.15;65.19
35307;BME280;21420;52.196;21.416;2023-04-26T05:23:47;99569.86;;;7.30;65.21
35307;BME280;21420;52.196;21.416;2023-04-26T05:26:16;99565.54;;;7.37;65.14
35307;BME280;21420;52.196;21.416;2023-04-26T05:28:50;99572.02;;;7.40;65.02
35307;BME280;21420;52.196;21.416;2023-04-26T05:31:38;99580.06;;;7.47;65.11
35307;BME280;21420;52.196;21.416;2023-04-26T05:34:28;99583.55;;;7.96;66.13
35307;BME280;21420;52.196;21.416;2023-04-26T05:36:57;99580.10;;;8.74;66.74
35307;BME280;21420;52.196;21.416;2023-04-26T05:39:24;99583.66;;;9.25;66.55
35307;BME280;21420;52.196;21.416;2023-04-26T05:41:50;99583.21;;;9.29;65.59
35307;BME280;21420;52.196;21.416;2023-04-26T05:44:17;99580.97;;;9.34;65.38
35307;BME280;21420;52.196;21.416;2023-04-26T05:46:45;99581.14;;;9.43;65.23
35307;BME280;21420;52.196;21.416;2023-04-26T05:49:12;99582.77;;;9.63;65.31
35307;BME280;21420;52.196;21.416;2023-04-26T05:51:39;99582.35;;;9.79;65.27
35307;BME280;21420;52.196;21.416;2023-04-26T05:54:06;99584.23;;;10.09;65.57
35307;BME280;21420;52.196;21.416;2023-04-26T05:56:33;99580.00;;;10.56;65.88
35307;BME280;21420;52.196;21.416;2023-04-26T05:59:00;99581.35;;;11.08;66.02
35307;BME280;21420;52.196;21.416;2023-04-26T06:01:26;99584.89;;;11.47;65.64
35307;BME280;21420;52.196;21.416;2023-04-26T06:03:53;99590.73;;;11.53;64.81
35307;BME280;21420;52.196;21.416;2023-04-26T06:06:28;99582.80;;;11.48;64.39
35307;BME280;21420;52.196;21.416;2023-04-26T06:08:55;99586.65;;;11.64;64.48
35307;BME280;21420;52.196;21.416;2023-04-26T06:11:22;99590.30;;;11.39;63.28
35307;BME280;21420;52.196;21.416;2023-04-26T06:13:49;99593.86;;;11.23;63.15
35307;BME280;21420;52.196;21.416;2023-04-26T06:16:16;99595.39;;;11.09;62.95
35307;BME280;21420;52.196;21.416;2023-04-26T06:18:46;99592.52;;;11.22;63.49
35307;BME280;21420;52.196;21.416;2023-04-26T06:21:15;99593.95;;;11.49;63.93
35307;BME280;21420;52.196;21.416;2023-04-26T06:23:42;99601.19;;;11.94;64.12
35307;BME280;21420;52.196;21.416;2023-04-26T06:26:08;99601.92;;;12.18;63.93
35307;BME280;21420;52.196;21.416;2023-04-26T06:28:35;99599.15;;;12.38;63.52
35307;BME280;21420;52.196;21.416;2023-04-26T06:31:02;99600.60;;;12.50;62.94
35307;BME280;21420;52.196;21.416;2023-04-26T06:33:29;99604.55;;;12.62;62.74
35307;BME280;21420;52.196;21.416;2023-04-26T06:35:56;99606.27;;;12.98;62.75
35307;BME280;21420;52.196;21.416;2023-04-26T06:38:23;99601.74;;;13.40;62.78
35307;BME280;21420;52.196;21.416;2023-04-26T06:40:49;99604.58;;;13.47;61.37
35307;BME280;21420;52.196;21.416;2023-04-26T06:43:17;99603.15;;;13.22;60.45
35307;BME280;21420;52.196;21.416;2023-04-26T06:45:59;99607.06;;;12.88;59.78
35307;BME280;21420;52.196;21.416;2023-04-26T06:48:26;99608.48;;;12.68;59.55
35307;BME280;21420;52.196;21.416;2023-04-26T06:50:53;99606.97;;;12.77;59.51
35307;BME280;21420;52.196;21.416;2023-04-26T06:53:19;99610.17;;;12.87;59.36
35307;BME280;21420;52.196;21.416;2023-04-26T06:55:48;99613.34;;;12.82;59.12
35307;BME280;21420;52.196;21.416;2023-04-26T06:58:15;99617.30;;;12.74;59.03
35307;BME280;21420;52.196;21.416;2023-04-26T07:00:42;99619.35;;;12.81;59.24
35307;BME280;21420;52.196;21.416;2023-04-26T07:03:08;99611.64;;;12.96;59.10
35307;BME280;21420;52.196;21.416;2023-04-26T07:05:35;99617.60;;;13.16;59.12
35307;BME280;21420;52.196;21.416;2023-04-26T07:08:02;99622.37;;;13.55;59.17
35307;BME280;21420;52.196;21.416;2023-04-26T07:10:29;99621.02;;;13.87;58.78
35307;BME280;21420;52.196;21.416;2023-04-26T07:12:55;99617.52;;;14.07;58.58
35307;BME280;21420;52.196;21.416;2023-04-26T07:15:22;99618.39;;;14.31;58.55
35307;BME280;21420;52.196;21.416;2023-04-26T07:17:49;99621.56;;;14.68;58.41
35307;BME280;21420;52.196;21.416;2023-04-26T07:20:16;99619.42;;;14.87;57.74
35307;BME280;21420;52.196;21.416;2023-04-26T07:22:46;99625.74;;;14.91;57.57
35307;BME280;21420;52.196;21.416;2023-04-26T07:25:12;99622.44;;;14.91;57.36
35307;BME280;21420;52.196;21.416;2023-04-26T07:27:39;99627.90;;;14.93;57.35
35307;BME280;21420;52.196;21.416;2023-04-26T07:30:06;99621.46;;;15.25;57.42
35307;BME280;21420;52.196;21.416;2023-04-26T07:32:33;99629.86;;;15.63;57.53
35307;BME280;21420;52.196;21.416;2023-04-26T07:35:05;99631.45;;;16.31;57.57
35307;BME280;21420;52.196;21.416;2023-04-26T07:37:42;99631.97;;;16.45;56.79
35307;BME280;21420;52.196;21.416;2023-04-26T07:40:10;99628.98;;;16.10;55.83
35307;BME280;21420;52.196;21.416;2023-04-26T07:42:37;99627.55;;;15.45;55.44
35307;BME280;21420;52.196;21.416;2023-04-26T07:45:04;99632.54;;;15.17;55.63
35307;BME280;21420;52.196;21.416;2023-04-26T07:47:30;99639.23;;;15.47;56.41
35307;BME280;21420;52.196;21.416;2023-04-26T07:49:57;99635.48;;;15.68;55.73
35307;BME280;21420;52.196;21.416;2023-04-26T07:52:24;99637.35;;;15.21;54.97
35307;BME280;21420;52.196;21.416;2023-04-26T07:54:51;99638.77;;;14.96;55.06
35307;BME280;21420;52.196;21.416;2023-04-26T07:57:17;99646.71;;;14.92;55.31
35307;BME280;21420;52.196;21.416;2023-04-26T07:59:45;99646.77;;;15.59;55.72
35307;BME280;21420;52.196;21.416;2023-04-26T08:02:12;99645.36;;;16.32;55.83
35307;BME280;21420;52.196;21.416;2023-04-26T08:04:43;99641.44;;;16.63;55.23
35307;BME280;21420;52.196;21.416;2023-04-26T08:07:14;99650.68;;;17.10;54.97
35307;BME280;21420;52.196;21.416;2023-04-26T08:09:40;99654.01;;;17.03;54.62
35307;BME280;21420;52.196;21.416;2023-04-26T08:12:07;99649.35;;;17.59;54.57
35307;BME280;21420;52.196;21.416;2023-04-26T08:14:34;99641.30;;;17.83;53.94
35307;BME280;21420;52.196;21.416;2023-04-26T08:17:03;99651.08;;;17.89;53.64
35307;BME280;21420;52.196;21.416;2023-04-26T08:19:30;99645.91;;;18.34;53.44
35307;BME280;21420;52.196;21.416;2023-04-26T08:21:58;99642.77;;;18.75;53.24
35307;BME280;21420;52.196;21.416;2023-04-26T08:24:25;99641.73;;;19.27;53.66
35307;BME280;21420;52.196;21.416;2023-04-26T08:26:52;99648.55;;;19.72;53.02
35307;BME280;21420;52.196;21.416;2023-04-26T08:29:18;99645.40;;;18.98;51.60
35307;BME280;21420;52.196;21.416;2023-04-26T08:31:46;99646.80;;;18.00;50.95
35307;BME280;21420;52.196;21.416;2023-04-26T08:34:13;99651.20;;;17.24;51.03
35307;BME280;21420;52.196;21.416;2023-04-26T08:36:40;99650.97;;;16.36;50.61
35307;BME280;21420;52.196;21.416;2023-04-26T08:39:08;99655.18;;;15.56;50.53
35307;BME280;21420;52.196;21.416;2023-04-26T08:41:36;99656.45;;;14.73;50.52
35307;BME280;21420;52.196;21.416;2023-04-26T08:44:06;99655.86;;;14.33;50.91
35307;BME280;21420;52.196;21.416;2023-04-26T08:47:02;99661.58;;;14.38;51.36
35307;BME280;21420;52.196;21.416;2023-04-26T08:49:45;99672.78;;;14.11;51.31
35307;BME280;21420;52.196;21.416;2023-04-26T08:52:19;99674.35;;;13.77;51.30
35307;BME280;21420;52.196;21.416;2023-04-26T08:54:50;99670.27;;;13.53;51.42
35307;BME280;21420;52.196;21.416;2023-04-26T08:57:18;99672.86;;;13.21;51.04
35307;BME280;21420;52.196;21.416;2023-04-26T08:59:46;99667.40;;;12.87;50.79
35307;BME280;21420;52.196;21.416;2023-04-26T09:02:17;99668.61;;;12.42;50.59
35307;BME280;21420;52.196;21.416;2023-04-26T09:04:48;99670.25;;;11.99;50.84
35307;BME280;21420;52.196;21.416;2023-04-26T09:07:26;99677.06;;;11.72;50.99
35307;BME280;21420;52.196;21.416;2023-04-26T09:09:56;99677.17;;;11.55;50.80
35307;BME280;21420;52.196;21.416;2023-04-26T09:12:24;99674.61;;;11.34;51.07
35307;BME280;21420;52.196;21.416;2023-04-26T09:14:51;99676.76;;;11.22;51.23
35307;BME280;21420;52.196;21.416;2023-04-26T09:17:26;99679.77;;;11.09;51.30
35307;BME280;21420;52.196;21.416;2023-04-26T09:19:54;99685.02;;;10.93;51.23
35307;BME280;21420;52.196;21.416;2023-04-26T09:22:34;99686.75;;;10.71;51.05
35307;BME280;21420;52.196;21.416;2023-04-26T09:25:03;99686.48;;;10.57;51.38
35307;BME280;21420;52.196;21.416;2023-04-26T09:27:35;99685.38;;;10.56;51.61
35307;BME280;21420;52.196;21.416;2023-04-26T09:30:05;99680.39;;;10.51;51.58
35307;BME280;21420;52.196;21.416;2023-04-26T09:32:56;99683.70;;;10.43;51.63
35307;BME280;21420;52.196;21.416;2023-04-26T09:35:30;99691.60;;;10.34;51.61
35307;BME280;21420;52.196;21.416;2023-04-26T09:38:12;99697.24;;;10.26;51.58
35307;BME280;21420;52.196;21.416;2023-04-26T09:40:47;99692.25;;;10.16;51.59
35307;BME280;21420;52.196;21.416;2023-04-26T09:43:16;99694.27;;;10.12;51.80
35307;BME280;21420;52.196;21.416;2023-04-26T09:45:47;99693.54;;;10.59;52.57
35307;BME280;21420;52.196;21.416;2023-04-26T09:50:46;99693.44;;;11.53;52.33
35307;BME280;21420;52.196;21.416;2023-04-26T09:56:11;99695.44;;;10.74;50.92
35307;BME280;21420;52.196;21.416;2023-04-26T09:58:59;99691.29;;;10.40;51.06
35307;BME280;21420;52.196;21.416;2023-04-26T10:01:28;99698.63;;;10.17;51.10
35307;BME280;21420;52.196;21.416;2023-04-26T10:03:56;99705.30;;;9.92;50.87
35307;BME280;21420;52.196;21.416;2023-04-26T10:06:24;99709.25;;;9.64;50.76
35307;BME280;21420;52.196;21.416;2023-04-26T10:08:54;99708.11;;;9.49;51.15
35307;BME280;21420;52.196;21.416;2023-04-26T10:11:22;99707.20;;;9.48;51.44
35307;BME280;21420;52.196;21.416;2023-04-26T10:13:50;99707.67;;;9.85;52.35
35307;BME280;21420;52.196;21.416;2023-04-26T10:16:17;99709.29;;;10.35;52.75
35307;BME280;21420;52.196;21.416;2023-04-26T10:18:46;99706.79;;;10.65;52.80
35307;BME280;21420;52.196;21.416;2023-04-26T10:21:33;99710.83;;;10.92;52.83
35307;BME280;21420;52.196;21.416;2023-04-26T10:24:03;99705.26;;;11.08;52.73
35307;BME280;21420;52.196;21.416;2023-04-26T10:26:49;99700.58;;;11.37;53.09
35307;BME280;21420;52.196;21.416;2023-04-26T10:29:19;99704.84;;;11.74;53.30
35307;BME280;21420;52.196;21.416;2023-04-26T10:34:35;99710.81;;;12.05;52.87
35307;BME280;21420;52.196;21.416;2023-04-26T10:37:13;99715.71;;;12.22;52.63
35307;BME280;21420;52.196;21.416;2023-04-26T10:39:45;99716.90;;;12.19;52.20
35307;BME280;21420;52.196;21.416;2023-04-26T10:42:28;99714.61;;;12.31;52.54
35307;BME280;21420;52.196;21.416;2023-04-26T10:44:57;99718.23;;;12.62;52.59
35307;BME280;21420;52.196;21.416;2023-04-26T10:47:32;99721.42;;;12.83;52.37
35307;BME280;21420;52.196;21.416;2023-04-26T10:50:08;99728.31;;;12.96;52.17
35307;BME280;21420;52.196;21.416;2023-04-26T10:58:25;99721.80;;;13.01;51.33
35307;BME280;21420;52.196;21.416;2023-04-26T11:01:18;99719.25;;;12.99;51.29
35307;BME280;21420;52.196;21.416;2023-04-26T11:04:17;99730.61;;;13.26;51.58
35307;BME280;21420;52.196;21.416;2023-04-26T11:06:55;99728.50;;;13.22;50.69
35307;BME280;21420;52.196;21.416;2023-04-26T11:09:38;99722.34;;;13.10;51.15
35307;BME280;21420;52.196;21.416;2023-04-26T11:12:12;99729.55;;;13.10;50.87
35307;BME280;21420;52.196;21.416;2023-04-26T11:14:41;99718.59;;;12.91;50.66
35307;BME280;21420;52.196;21.416;2023-04-26T11:17:10;99729.19;;;12.87;50.62
35307;BME280;21420;52.196;21.416;2023-04-26T11:19:40;99726.08;;;12.80;50.79
35307;BME280;21420;52.196;21.416;2023-04-26T11:22:10;99735.61;;;12.82;50.84
35307;BME280;21420;52.196;21.416;2023-04-26T11:24:41;99741.14;;;12.93;50.61
35307;BME280;21420;52.196;21.416;2023-04-26T11:27:10;99741.01;;;13.04;50.60
35307;BME280;21420;52.196;21.416;2023-04-26T11:29:39;99739.25;;;13.12;50.52
35307;BME280;21420;52.196;21.416;2023-04-26T11:32:09;99746.48;;;13.13;50.38
35307;BME280;21420;52.196;21.416;2023-04-26T11:34:40;99746.69;;;12.91;49.64
35307;BME280;21420;52.196;21.416;2023-04-26T11:37:10;99756.80;;;12.64;49.62
35307;BME280;21420;52.196;21.416;2023-04-26T11:39:39;99750.02;;;12.40;49.37
35307;BME280;21420;52.196;21.416;2023-04-26T11:42:10;99754.51;;;12.29;49.59
35307;BME280;21420;52.196;21.416;2023-04-26T11:44:40;99751.30;;;12.55;50.31
35307;BME280;21420;52.196;21.416;2023-04-26T11:47:10;99745.87;;;13.33;51.41
35307;BME280;21420;52.196;21.416;2023-04-26T11:49:40;99745.95;;;14.00;51.25
35307;BME280;21420;52.196;21.416;2023-04-26T11:52:10;99749.77;;;14.59;51.48
35307;BME280;21420;52.196;21.416;2023-04-26T11:54:42;99747.05;;;15.04;50.94
35307;BME280;21420;52.196;21.416;2023-04-26T11:57:16;99748.62;;;14.71;49.24
35307;BME280;21420;52.196;21.416;2023-04-26T12:09:29;99777.16;;;14.31;49.04
35307;BME280;21420;52.196;21.416;2023-04-26T12:12:01;99775.48;;;13.80;48.01
35307;BME280;21420;52.196;21.416;2023-04-26T12:14:36;99768.13;;;13.34;48.08
35307;BME280;21420;52.196;21.416;2023-04-26T12:17:04;99768.87;;;12.81;47.48
35307;BME280;21420;52.196;21.416;2023-04-26T12:19:40;99769.55;;;12.33;47.63
35307;BME280;21420;52.196;21.416;2023-04-26T12:22:07;99775.78;;;12.15;48.03
35307;BME280;21420;52.196;21.416;2023-04-26T12:24:35;99772.71;;;12.43;48.70
35307;BME280;21420;52.196;21.416;2023-04-26T12:27:04;99771.86;;;13.04;49.11
35307;BME280;21420;52.196;21.416;2023-04-26T12:29:33;99772.76;;;13.19;48.61
35307;BME280;21420;52.196;21.416;2023-04-26T12:32:00;99778.89;;;13.01;48.07
35307;BME280;21420;52.196;21.416;2023-04-26T12:34:27;99771.27;;;13.20;48.83
35307;BME280;21420;52.196;21.416;2023-04-26T12:36:54;99774.52;;;13.36;48.56
35307;BME280;21420;52.196;21.416;2023-04-26T12:39:21;99781.91;;;13.04;47.73
35307;BME280;21420;52.196;21.416;2023-04-26T12:41:47;99782.14;;;12.72;47.97
35307;BME280;21420;52.196;21.416;2023-04-26T12:44:14;99790.47;;;12.99;48.96
35307;BME280;21420;52.196;21.416;2023-04-26T12:46:42;99788.81;;;13.21;48.94
35307;BME280;21420;52.196;21.416;2023-04-26T12:49:09;99796.23;;;13.47;49.18
35307;BME280;21420;52.196;21.416;2023-04-26T12:51:35;99799.13;;;13.57;48.92
35307;BME280;21420;52.196;21.416;2023-04-26T12:54:02;99806.52;;;13.38;48.16
35307;BME280;21420;52.196;21.416;2023-04-26T12:56:29;99797.45;;;13.31;48.68
35307;BME280;21420;52.196;21.416;2023-04-26T12:58:56;99801.02;;;13.68;49.04
35307;BME280;21420;52.196;21.416;2023-04-26T13:01:23;99810.18;;;13.61;48.09
35307;BME280;21420;52.196;21.416;2023-04-26T13:03:50;99812.70;;;13.41;48.05
35307;BME280;21420;52.196;21.416;2023-04-26T13:06:17;99811.36;;;13.45;48.39
35307;BME280;21420;52.196;21.416;2023-04-26T13:08:44;99810.42;;;13.76;48.85
35307;BME280;21420;52.196;21.416;2023-04-26T13:11:10;99816.23;;;14.05;48.75
35307;BME280;21420;52.196;21.416;2023-04-26T13:13:38;99815.80;;;14.07;48.26
35307;BME280;21420;52.196;21.416;2023-04-26T13:16:10;99818.19;;;14.16;48.48
35307;BME280;21420;52.196;21.416;2023-04-26T13:18:39;99815.13;;;14.22;48.37
35307;BME280;21420;52.196;21.416;2023-04-26T13:21:06;99824.02;;;14.17;47.90
35307;BME280;21420;52.196;21.416;2023-04-26T13:23:33;99825.04;;;14.05;47.81
35307;BME280;21420;52.196;21.416;2023-04-26T13:26:00;99820.90;;;14.13;47.98
35307;BME280;21420;52.196;21.416;2023-04-26T13:28:26;99827.15;;;14.03;47.60
35307;BME280;21420;52.196;21.416;2023-04-26T13:30:53;99829.21;;;14.05;47.85